createdAt,value
2019-04-03T00:01:23.916Z,10.88
2019-04-03T00:03:50.565Z,10.92
2019-04-03T00:06:17.210Z,10.78
2019-04-03T00:08:44.916Z,10.79
2019-04-03T00:11:11.691Z,10.86
2019-04-03T00:13:41.229Z,10.91
2019-04-03T00:16:07.007Z,10.89
2019-04-03T00:18:34.717Z,10.85
2019-04-03T00:21:01.386Z,10.75
2019-04-03T00:23:28.192Z,10.85
2019-04-03T00:25:54.921Z,10.85
2019-04-03T00:28:22.366Z,10.83
2019-04-03T00:30:49.440Z,10.77
2019-04-03T00:33:16.126Z,10.78
2019-04-03T00:35:42.816Z,10.74
2019-04-03T00:38:09.531Z,10.75
2019-04-03T00:40:36.175Z,10.78
2019-04-03T00:43:02.939Z,10.73
2019-04-03T00:45:29.551Z,10.81
2019-04-03T00:47:56.215Z,10.77
2019-04-03T00:50:22.920Z,10.73
2019-04-03T00:52:49.579Z,10.77
2019-04-03T00:55:16.296Z,10.77
2019-04-03T00:57:43.018Z,10.81
2019-04-03T01:00:12.419Z,10.85
2019-04-03T01:02:39.102Z,10.88
2019-04-03T01:05:05.804Z,10.91
2019-04-03T01:07:32.423Z,10.83
2019-04-03T01:09:59.503Z,10.90
2019-04-03T01:12:26.805Z,10.91
2019-04-03T01:14:53.569Z,10.99
2019-04-03T01:17:20.460Z,10.96
2019-04-03T01:19:47.198Z,10.99
2019-04-03T01:22:13.914Z,11.03
2019-04-03T01:24:41.539Z,11.08
2019-04-03T01:27:08.239Z,11.21
2019-04-03T01:29:35.038Z,11.25
2019-04-03T01:32:01.785Z,11.33
2019-04-03T01:34:29.494Z,11.36
2019-04-03T01:36:56.137Z,11.45
2019-04-03T01:39:22.912Z,11.43
2019-04-03T01:41:51.301Z,11.43
2019-04-03T01:44:18.132Z,11.42
2019-04-03T01:46:44.871Z,11.50
2019-04-03T01:49:11.734Z,11.52
2019-04-03T01:51:38.431Z,11.55
2019-04-03T01:54:05.079Z,11.49
2019-04-03T01:56:31.792Z,11.46
2019-04-03T01:58:58.412Z,11.39
2019-04-03T02:01:25.077Z,11.35
2019-04-03T02:03:51.744Z,11.15
2019-04-03T02:06:18.382Z,11.07
2019-04-03T02:08:45.484Z,11.05
2019-04-03T02:11:12.339Z,11.04
2019-04-03T02:13:39.149Z,11.02
2019-04-03T02:16:05.932Z,11.03
2019-04-03T02:18:32.669Z,11.07
2019-04-03T02:20:59.297Z,10.99
2019-04-03T02:23:26.102Z,10.95
2019-04-03T02:25:53.603Z,10.94
2019-04-03T02:28:21.220Z,10.89
2019-04-03T02:30:47.876Z,10.92
2019-04-03T02:33:14.753Z,10.90
2019-04-03T02:35:41.455Z,10.85
2019-04-03T02:38:08.147Z,10.83
2019-04-03T02:40:35.152Z,10.80
2019-04-03T02:43:01.808Z,10.58
2019-04-03T02:45:28.543Z,9.97
2019-04-03T02:47:55.431Z,9.65
2019-04-03T02:50:23.260Z,9.79
2019-04-03T02:52:49.993Z,9.86
2019-04-03T02:55:16.749Z,9.78
2019-04-03T02:57:43.399Z,9.72
2019-04-03T03:00:10.196Z,9.66
2019-04-03T03:02:37.262Z,9.66
2019-04-03T03:05:04.983Z,9.59
2019-04-03T03:07:35.794Z,9.64
2019-04-03T03:10:00.824Z,9.75
2019-04-03T03:12:28.470Z,9.97
2019-04-03T03:14:55.988Z,9.98
2019-04-03T03:17:23.641Z,10.07
2019-04-03T03:19:50.920Z,10.09
2019-04-03T03:22:19.038Z,10.11
2019-04-03T03:24:47.440Z,10.15
2019-04-03T03:27:14.493Z,10.14
2019-04-03T03:29:41.174Z,10.15
2019-04-03T03:32:15.473Z,10.24
2019-04-03T03:34:51.570Z,10.15
2019-04-03T03:37:05.173Z,10.20
2019-04-03T03:39:31.999Z,10.24
2019-04-03T03:41:59.338Z,10.29
2019-04-03T03:44:26.974Z,10.35
2019-04-03T03:46:55.116Z,10.38
2019-04-03T03:49:23.357Z,10.45
2019-04-03T03:51:50.625Z,10.41
2019-04-03T03:54:18.970Z,10.40
2019-04-03T03:56:46.117Z,10.40
2019-04-03T03:59:16.295Z,10.28
2019-04-03T04:01:42.214Z,10.28
2019-04-03T04:04:13.291Z,10.28
2019-04-03T04:06:37.336Z,10.30
2019-04-03T04:09:06.092Z,10.28
2019-04-03T04:11:34.159Z,10.15
2019-04-03T04:14:00.751Z,9.69
2019-04-03T04:16:27.682Z,9.55
2019-04-03T04:18:57.349Z,9.60
2019-04-03T04:21:24.778Z,9.58
2019-04-03T04:23:53.151Z,9.58
2019-04-03T04:26:20.020Z,9.57
2019-04-03T04:28:47.738Z,9.67
2019-04-03T04:31:14.441Z,9.78
2019-04-03T04:33:41.344Z,9.98
2019-04-03T04:36:08.181Z,10.04
2019-04-03T04:38:34.977Z,10.19
2019-04-03T04:41:02.225Z,10.23
2019-04-03T04:43:28.985Z,10.27
2019-04-03T04:45:55.732Z,10.40
2019-04-03T04:48:22.346Z,10.47
2019-04-03T04:50:49.115Z,10.50
2019-04-03T04:53:15.801Z,10.55
2019-04-03T04:55:42.427Z,10.56
2019-04-03T04:58:09.910Z,10.66
2019-04-03T05:00:37.991Z,10.79
2019-04-03T05:03:04.687Z,10.89
2019-04-03T05:05:31.632Z,10.98
2019-04-03T05:08:01.348Z,11.08
2019-04-03T05:10:26.851Z,11.05
2019-04-03T05:12:53.500Z,11.23
2019-04-03T05:15:23.443Z,11.39
2019-04-03T05:17:50.610Z,11.21
2019-04-03T05:20:19.550Z,11.05
2019-04-03T05:22:46.153Z,11.04
2019-04-03T05:25:12.836Z,11.00
2019-04-03T05:27:39.486Z,11.11
2019-04-03T05:30:06.713Z,11.11
2019-04-03T05:32:33.732Z,11.05
2019-04-03T05:35:00.489Z,11.13
2019-04-03T05:37:27.454Z,11.10
2019-04-03T05:39:55.646Z,11.19
2019-04-03T05:42:22.670Z,11.17
2019-04-03T05:44:50.626Z,11.13
2019-04-03T05:47:17.499Z,11.20
2019-04-03T05:49:46.488Z,11.25
2019-04-03T05:52:12.767Z,11.24
2019-04-03T05:54:40.017Z,11.23
2019-04-03T05:57:07.352Z,10.87
2019-04-03T05:59:34.276Z,10.93
2019-04-03T06:02:13.501Z,10.86
2019-04-03T06:04:29.501Z,10.89
2019-04-03T06:06:56.197Z,10.98
2019-04-03T06:09:23.234Z,11.09
2019-04-03T06:11:51.900Z,11.14
2019-04-03T06:14:19.508Z,11.27
2019-04-03T06:16:47.209Z,11.32
2019-04-03T06:19:13.886Z,11.37
2019-04-03T06:21:40.588Z,11.28
2019-04-03T06:24:07.334Z,11.21
2019-04-03T06:26:34.101Z,11.13
2019-04-03T06:29:00.803Z,11.20
2019-04-03T06:31:27.771Z,11.21
2019-04-03T06:33:54.558Z,11.07
2019-04-03T06:36:21.234Z,11.15
2019-04-03T06:38:47.897Z,11.30
2019-04-03T06:41:14.654Z,11.39
2019-04-03T06:43:41.432Z,11.48
2019-04-03T06:46:08.135Z,11.46
2019-04-03T06:48:36.808Z,11.54
2019-04-03T06:51:03.571Z,11.55
2019-04-03T06:53:31.266Z,11.52
2019-04-03T06:55:57.907Z,11.43
2019-04-03T06:58:31.686Z,11.40
2019-04-03T07:00:54.789Z,11.42
2019-04-03T07:03:22.836Z,10.64
2019-04-03T07:05:49.980Z,10.46
2019-04-03T07:08:28.633Z,10.54
2019-04-03T07:10:54.976Z,10.52
2019-04-03T07:13:15.214Z,10.61
2019-04-03T07:15:42.075Z,10.74
2019-04-03T07:18:08.695Z,10.91
2019-04-03T07:20:35.396Z,10.89
2019-04-03T07:23:02.118Z,10.95
2019-04-03T07:25:29.008Z,10.89
2019-04-03T07:27:55.749Z,10.90
2019-04-03T07:30:22.504Z,10.91
2019-04-03T07:32:49.268Z,11.08
2019-04-03T07:35:16.119Z,11.30
2019-04-03T07:37:42.921Z,11.50
2019-04-03T07:40:10.147Z,11.89
2019-04-03T07:42:38.061Z,12.04
2019-04-03T07:45:05.898Z,12.13
2019-04-03T07:47:34.431Z,12.28
2019-04-03T07:50:01.161Z,12.38
2019-04-03T07:52:28.980Z,12.62
2019-04-03T07:54:57.072Z,12.72
2019-04-03T07:57:24.286Z,12.78
2019-04-03T07:59:50.909Z,13.01
2019-04-03T08:02:17.577Z,13.41
2019-04-03T08:04:44.271Z,13.73
2019-04-03T08:07:10.925Z,13.99
2019-04-03T08:09:37.648Z,14.19
2019-04-03T08:12:04.580Z,14.38
2019-04-03T08:14:31.366Z,14.52
2019-04-03T08:16:57.997Z,14.63
2019-04-03T08:19:24.726Z,14.68
2019-04-03T08:21:51.392Z,14.73
2019-04-03T08:24:18.104Z,14.86
2019-04-03T08:26:44.958Z,15.07
2019-04-03T08:29:12.045Z,15.22
2019-04-03T08:31:38.846Z,15.24
2019-04-03T08:34:15.598Z,15.51
2019-04-03T08:36:34.307Z,15.64
2019-04-03T08:39:01.226Z,16.06
2019-04-03T08:41:29.977Z,16.28
2019-04-03T08:43:56.640Z,16.19
2019-04-03T08:46:23.311Z,16.19
2019-04-03T08:48:50.003Z,16.21
2019-04-03T08:51:16.675Z,16.35
2019-04-03T08:53:43.377Z,16.28
2019-04-03T08:56:10.505Z,16.54
2019-04-03T08:58:38.129Z,16.60
2019-04-03T09:01:05.381Z,16.53
2019-04-03T09:03:32.176Z,16.88
2019-04-03T09:05:58.823Z,16.67
2019-04-03T09:08:26.687Z,16.99
2019-04-03T09:10:54.094Z,17.47
2019-04-03T09:13:23.339Z,17.93
2019-04-03T09:15:49.440Z,18.13
2019-04-03T09:18:16.310Z,18.09
2019-04-03T09:20:43.430Z,17.92
2019-04-03T09:23:10.833Z,17.54
2019-04-03T09:25:37.550Z,17.88
2019-04-03T09:28:04.267Z,18.05
2019-04-03T09:30:30.955Z,18.02
2019-04-03T09:32:59.904Z,18.06
2019-04-03T09:35:27.004Z,17.71
2019-04-03T09:37:53.667Z,17.53
2019-04-03T09:40:20.373Z,18.10
2019-04-03T09:42:46.938Z,18.23
2019-04-03T09:45:13.930Z,18.88
2019-04-03T09:47:40.646Z,19.29
2019-04-03T09:50:08.536Z,19.49
2019-04-03T09:52:41.478Z,19.60
2019-04-03T09:55:05.045Z,19.60
2019-04-03T09:57:32.423Z,19.53
2019-04-03T09:59:59.211Z,19.47
2019-04-03T10:02:25.862Z,19.65
2019-04-03T10:04:52.594Z,19.72
2019-04-03T10:07:19.689Z,19.56
2019-04-03T10:09:46.535Z,19.53
2019-04-03T10:12:13.152Z,19.26
2019-04-03T10:14:39.792Z,18.85
2019-04-03T10:17:07.141Z,19.60
2019-04-03T10:19:35.669Z,19.86
2019-04-03T10:22:02.311Z,20.02
2019-04-03T10:24:31.089Z,19.33
2019-04-03T10:26:57.473Z,18.61
2019-04-03T10:29:24.090Z,19.07
2019-04-03T10:31:50.764Z,19.38
2019-04-03T10:34:17.378Z,19.15
2019-04-03T10:36:44.018Z,18.40
2019-04-03T10:39:11.277Z,18.08
2019-04-03T10:41:37.899Z,17.97
2019-04-03T10:44:04.891Z,18.13
2019-04-03T10:46:31.954Z,18.57
2019-04-03T10:49:00.411Z,18.26
2019-04-03T10:51:27.349Z,18.70
2019-04-03T10:53:54.111Z,19.04
2019-04-03T10:56:20.717Z,19.06
2019-04-03T10:58:49.679Z,19.32
2019-04-03T11:01:15.967Z,19.37
2019-04-03T11:03:42.798Z,19.25
2019-04-03T11:06:09.511Z,19.38
2019-04-03T11:08:36.280Z,19.27
2019-04-03T11:11:04.943Z,19.22
2019-04-03T11:13:32.247Z,18.60
2019-04-03T11:16:00.285Z,18.33
2019-04-03T11:18:28.269Z,17.69
2019-04-03T11:20:55.110Z,17.56
2019-04-03T11:23:36.057Z,17.58
2019-04-03T11:25:50.414Z,17.68
2019-04-03T11:28:17.186Z,17.54
2019-04-03T11:30:44.110Z,17.44
2019-04-03T11:33:13.067Z,17.55
2019-04-03T11:35:39.491Z,17.62
2019-04-03T11:38:12.712Z,17.98
2019-04-03T11:40:34.883Z,18.19
2019-04-03T11:43:01.590Z,18.31
2019-04-03T11:45:28.325Z,18.44
2019-04-03T11:47:54.889Z,18.55
2019-04-03T11:50:23.458Z,18.34
2019-04-03T11:52:51.732Z,18.07
2019-04-03T11:55:18.859Z,18.23
2019-04-03T11:57:48.581Z,18.14
2019-04-03T12:00:17.552Z,18.21
2019-04-03T12:02:44.727Z,18.19
2019-04-03T12:05:16.109Z,18.16
2019-04-03T12:07:42.744Z,18.22
2019-04-03T12:10:09.468Z,18.26
2019-04-03T12:12:36.065Z,18.18
2019-04-03T12:15:05.692Z,18.62
2019-04-03T12:17:32.284Z,18.79
2019-04-03T12:19:58.880Z,18.33
2019-04-03T12:22:25.543Z,18.21
2019-04-03T12:24:52.208Z,18.18
2019-04-03T12:27:18.834Z,18.23
2019-04-03T12:29:45.547Z,18.26
2019-04-03T12:32:12.148Z,17.99
2019-04-03T12:34:38.803Z,17.85
2019-04-03T12:37:05.475Z,17.89
2019-04-03T12:39:32.245Z,18.01
2019-04-03T12:41:59.284Z,18.27
2019-04-03T12:44:26.504Z,18.62
2019-04-03T12:46:53.551Z,18.90
2019-04-03T12:49:22.810Z,19.41
2019-04-03T12:51:48.895Z,19.78
2019-04-03T12:54:15.568Z,19.66
2019-04-03T12:56:42.671Z,19.15
2019-04-03T12:59:09.968Z,18.84
2019-04-03T13:01:36.716Z,18.52
2019-04-03T13:04:03.614Z,18.18
2019-04-03T13:06:30.333Z,18.14
2019-04-03T13:08:57.071Z,18.16
2019-04-03T13:11:23.795Z,18.25
2019-04-03T13:13:50.530Z,18.54
2019-04-03T13:16:17.217Z,18.97
2019-04-03T13:18:44.098Z,19.42
2019-04-03T13:21:10.992Z,19.99
2019-04-03T13:23:37.728Z,20.20
2019-04-03T13:26:05.440Z,20.43
2019-04-03T13:28:33.462Z,20.61
2019-04-03T13:31:00.691Z,20.71
2019-04-03T13:33:27.733Z,20.49
2019-04-03T13:35:54.523Z,20.64
2019-04-03T13:38:21.230Z,20.58
2019-04-03T13:40:48.383Z,20.36
2019-04-03T13:43:15.174Z,20.33
2019-04-03T13:45:41.866Z,20.44
2019-04-03T13:48:10.249Z,20.53
2019-04-03T13:50:37.176Z,20.33
2019-04-03T13:53:03.893Z,19.99
2019-04-03T13:55:33.804Z,19.98
2019-04-03T13:57:59.166Z,19.50
2019-04-03T14:00:25.893Z,19.22
2019-04-03T14:02:52.753Z,19.02
2019-04-03T14:05:19.857Z,18.87
2019-04-03T14:07:46.493Z,18.79
2019-04-03T14:10:13.257Z,18.49
2019-04-03T14:12:43.700Z,18.20
2019-04-03T14:15:08.575Z,17.99
2019-04-03T14:17:36.639Z,17.87
2019-04-03T14:20:07.619Z,17.57
2019-04-03T14:22:34.299Z,17.50
2019-04-03T14:25:00.968Z,17.40
2019-04-03T14:27:30.712Z,17.31
2019-04-03T14:29:58.727Z,17.46
2019-04-03T14:32:24.779Z,17.39
2019-04-03T14:34:51.499Z,17.34
2019-04-03T14:37:18.596Z,17.12
2019-04-03T14:39:46.732Z,17.07
2019-04-03T14:42:14.066Z,17.16
2019-04-03T14:44:41.962Z,17.18
2019-04-03T14:47:09.436Z,16.90
2019-04-03T14:49:36.257Z,16.60
2019-04-03T14:52:03.034Z,16.47
2019-04-03T14:54:30.976Z,16.39
2019-04-03T14:56:58.239Z,16.46
2019-04-03T14:59:24.957Z,16.60
2019-04-03T15:01:52.290Z,16.79
2019-04-03T15:04:19.227Z,16.93
2019-04-03T15:06:46.786Z,17.00
2019-04-03T15:09:14.752Z,16.92
2019-04-03T15:11:41.595Z,16.89
2019-04-03T15:14:08.433Z,16.86
2019-04-03T15:16:35.258Z,16.79
2019-04-03T15:19:02.639Z,16.71
2019-04-03T15:21:29.470Z,16.70
2019-04-03T15:23:56.544Z,16.69
2019-04-03T15:26:23.914Z,16.59
2019-04-03T15:28:50.905Z,16.58
2019-04-03T15:31:18.991Z,16.57
2019-04-03T15:33:45.860Z,16.61
2019-04-03T15:36:12.633Z,16.55
2019-04-03T15:38:39.499Z,16.50
2019-04-03T15:41:06.257Z,16.55
2019-04-03T15:43:32.957Z,16.56
2019-04-03T15:45:59.647Z,16.59
2019-04-03T15:48:27.056Z,16.41
2019-04-03T15:50:53.800Z,16.29
2019-04-03T15:53:23.682Z,16.24
2019-04-03T15:55:49.065Z,16.24
2019-04-03T15:58:15.778Z,16.08
2019-04-03T16:00:43.245Z,16.00
2019-04-03T16:03:10.635Z,15.76
2019-04-03T16:05:37.397Z,15.72
2019-04-03T16:08:04.241Z,15.72
2019-04-03T16:10:30.963Z,15.73
2019-04-03T16:12:57.795Z,15.64
2019-04-03T16:15:24.626Z,15.69
2019-04-03T16:17:51.792Z,15.65
2019-04-03T16:20:18.576Z,15.73
2019-04-03T16:22:45.228Z,15.70
2019-04-03T16:25:12.351Z,15.74
2019-04-03T16:27:40.202Z,15.74
2019-04-03T16:30:08.326Z,15.82
2019-04-03T16:32:35.323Z,15.92
2019-04-03T16:35:01.929Z,15.94
2019-04-03T16:37:29.971Z,16.02
2019-04-03T16:39:57.319Z,16.05
2019-04-03T16:42:24.097Z,16.06
2019-04-03T16:44:50.750Z,16.07
2019-04-03T16:47:17.983Z,16.09
2019-04-03T16:49:44.719Z,16.04
2019-04-03T16:52:11.606Z,15.96
2019-04-03T16:54:38.412Z,15.95
2019-04-03T16:57:05.028Z,15.81
2019-04-03T16:59:31.801Z,15.80
2019-04-03T17:01:59.003Z,15.72
2019-04-03T17:04:27.894Z,15.54
2019-04-03T17:06:54.628Z,15.41
2019-04-03T17:09:21.440Z,15.29
2019-04-03T17:11:49.239Z,15.31
2019-04-03T17:14:16.262Z,15.30
2019-04-03T17:16:45.571Z,15.30
2019-04-03T17:19:11.459Z,15.03
2019-04-03T17:21:39.359Z,15.01
2019-04-03T17:24:07.318Z,15.03
2019-04-03T17:26:33.971Z,15.02
2019-04-03T17:29:05.073Z,14.92
2019-04-03T17:31:29.523Z,15.02
2019-04-03T17:33:56.722Z,15.06
2019-04-03T17:36:23.444Z,15.07
2019-04-03T17:38:50.347Z,15.03
2019-04-03T17:41:17.135Z,15.01
2019-04-03T17:43:44.932Z,14.96
2019-04-03T17:46:11.692Z,14.86
2019-04-03T17:48:38.404Z,14.79
2019-04-03T17:51:06.090Z,14.76
2019-04-03T17:53:32.823Z,14.66
2019-04-03T17:55:59.476Z,14.65
2019-04-03T17:58:26.172Z,14.58
2019-04-03T18:00:52.879Z,14.57
2019-04-03T18:03:20.016Z,14.50
2019-04-03T18:05:46.784Z,14.20
2019-04-03T18:08:13.517Z,14.39
2019-04-03T18:10:42.347Z,14.34
2019-04-03T18:13:08.667Z,14.41
2019-04-03T18:15:35.394Z,14.35
2019-04-03T18:18:02.943Z,14.34
2019-04-03T18:20:30.087Z,14.19
2019-04-03T18:22:56.770Z,14.21
2019-04-03T18:25:23.378Z,14.31
2019-04-03T18:27:49.968Z,14.45
2019-04-03T18:30:17.249Z,14.40
2019-04-03T18:32:45.985Z,14.34
2019-04-03T18:35:12.461Z,14.30
2019-04-03T18:37:40.955Z,14.25
2019-04-03T18:40:09.414Z,14.22
2019-04-03T18:42:36.023Z,14.21
2019-04-03T18:45:04.731Z,14.20
2019-04-03T18:47:41.249Z,14.17
2019-04-03T18:50:02.890Z,14.20
2019-04-03T18:52:28.748Z,14.18
2019-04-03T18:54:55.382Z,14.20
2019-04-03T18:57:22.032Z,14.19
2019-04-03T18:59:48.706Z,14.08
2019-04-03T19:02:15.428Z,14.02
2019-04-03T19:04:42.112Z,13.79
2019-04-03T19:07:08.798Z,13.80
2019-04-03T19:09:35.429Z,13.83
2019-04-03T19:12:08.359Z,13.82
2019-04-03T19:14:32.119Z,13.89
2019-04-03T19:16:58.977Z,13.94
2019-04-03T19:19:25.729Z,13.86
2019-04-03T19:21:52.801Z,13.81
2019-04-03T19:24:21.138Z,13.75
2019-04-03T19:26:48.860Z,13.70
2019-04-03T19:29:15.608Z,13.60
2019-04-03T19:31:42.228Z,13.51
2019-04-03T19:34:08.911Z,13.50
2019-04-03T19:36:35.599Z,13.35
2019-04-03T19:39:06.634Z,13.29
2019-04-03T19:41:33.665Z,13.22
2019-04-03T19:44:00.796Z,13.17
2019-04-03T19:46:27.703Z,12.99
2019-04-03T19:48:56.486Z,12.91
2019-04-03T19:51:23.156Z,12.80
2019-04-03T19:53:59.231Z,12.77
2019-04-03T19:56:18.411Z,12.71
2019-04-03T19:58:45.100Z,12.60
2019-04-03T20:01:11.727Z,12.57
2019-04-03T20:03:38.402Z,12.48
2019-04-03T20:06:05.072Z,12.44
2019-04-03T20:08:31.863Z,12.33
2019-04-03T20:10:58.587Z,12.26
2019-04-03T20:13:27.938Z,12.28
2019-04-03T20:15:54.662Z,12.31
2019-04-03T20:18:25.584Z,12.29
2019-04-03T20:20:51.077Z,12.20
2019-04-03T20:23:18.753Z,12.08
2019-04-03T20:25:45.950Z,11.87
2019-04-03T20:28:13.366Z,11.83
2019-04-03T20:30:40.151Z,11.78
2019-04-03T20:33:06.815Z,11.73
2019-04-03T20:35:33.488Z,11.72
2019-04-03T20:38:00.116Z,11.65
2019-04-03T20:40:26.853Z,11.66
2019-04-03T20:42:53.587Z,11.61
2019-04-03T20:45:20.206Z,11.57
2019-04-03T20:47:46.900Z,11.39
2019-04-03T20:50:16.122Z,11.28
2019-04-03T20:52:45.778Z,11.24
2019-04-03T20:55:11.224Z,11.20
2019-04-03T20:57:37.962Z,11.27
2019-04-03T21:00:13.133Z,11.08
2019-04-03T21:02:41.925Z,11.09
2019-04-03T21:05:09.244Z,11.03
2019-04-03T21:07:35.972Z,10.93
2019-04-03T21:10:05.272Z,10.90
2019-04-03T21:12:31.958Z,10.88
2019-04-03T21:15:08.237Z,10.84
2019-04-03T21:17:27.337Z,10.87
2019-04-03T21:19:54.185Z,10.90
2019-04-03T21:22:20.820Z,10.88
2019-04-03T21:24:47.550Z,10.87
2019-04-03T21:27:14.408Z,10.83
2019-04-03T21:29:41.037Z,10.73
2019-04-03T21:32:10.492Z,10.46
2019-04-03T21:34:36.361Z,9.97
2019-04-03T21:37:02.974Z,9.93
2019-04-03T21:39:29.658Z,9.94
2019-04-03T21:41:56.560Z,10.01
2019-04-03T21:44:23.206Z,10.05
2019-04-03T21:46:49.851Z,10.05
2019-04-03T21:49:17.306Z,10.11
2019-04-03T21:51:44.154Z,10.10
2019-04-03T21:54:10.896Z,10.15
2019-04-03T21:56:37.585Z,10.12
2019-04-03T21:59:04.362Z,10.06
2019-04-03T22:01:31.106Z,10.01
2019-04-03T22:03:57.941Z,9.98
2019-04-03T22:06:26.622Z,10.05
2019-04-03T22:08:53.165Z,10.09
2019-04-03T22:11:19.851Z,10.02
2019-04-03T22:13:46.476Z,9.99
2019-04-03T22:16:13.163Z,9.97
2019-04-03T22:18:39.881Z,10.04
2019-04-03T22:21:06.477Z,10.08
2019-04-03T22:23:35.589Z,10.05
2019-04-03T22:26:01.716Z,10.05
2019-04-03T22:28:28.403Z,10.06
2019-04-03T22:30:55.148Z,10.08
2019-04-03T22:33:21.843Z,10.05
2019-04-03T22:35:48.635Z,10.05
2019-04-03T22:38:15.371Z,10.02
2019-04-03T22:40:42.217Z,10.06
2019-04-03T22:43:08.863Z,10.09
2019-04-03T22:45:35.591Z,10.07
2019-04-03T22:48:02.340Z,10.02
2019-04-03T22:50:29.175Z,10.02
2019-04-03T22:52:56.011Z,10.01
2019-04-03T22:55:22.751Z,10.03
2019-04-03T22:57:50.607Z,10.01
2019-04-03T23:00:18.994Z,10.04
2019-04-03T23:02:45.730Z,10.08
2019-04-03T23:05:12.378Z,10.06
2019-04-03T23:07:39.005Z,10.04
2019-04-03T23:10:05.759Z,10.02
2019-04-03T23:12:33.363Z,10.04
2019-04-03T23:15:01.687Z,9.92
2019-04-03T23:17:28.541Z,9.87
2019-04-03T23:19:55.266Z,9.90
2019-04-03T23:22:21.908Z,9.72
2019-04-03T23:24:48.758Z,9.66
2019-04-03T23:27:15.392Z,9.78
2019-04-03T23:29:42.013Z,9.77
2019-04-03T23:32:08.761Z,9.68
2019-04-03T23:34:35.500Z,9.78
2019-04-03T23:37:02.148Z,9.49
2019-04-03T23:39:29.081Z,9.47
2019-04-03T23:41:55.712Z,9.43
2019-04-03T23:44:22.458Z,9.50
2019-04-03T23:46:49.394Z,9.61
2019-04-03T23:49:16.189Z,9.69
2019-04-03T23:51:42.881Z,9.67
2019-04-03T23:54:09.722Z,9.70
2019-04-03T23:56:37.032Z,9.80
2019-04-03T23:59:05.254Z,9.83
